createdAt,value
2017-11-23T00:00:32.183Z,65.58
2017-11-23T00:02:59.728Z,65.83
2017-11-23T00:05:27.237Z,66.82
2017-11-23T00:07:54.793Z,66.91
2017-11-23T00:10:22.316Z,67.11
2017-11-23T00:12:49.833Z,66.18
2017-11-23T00:15:17.365Z,66.46
2017-11-23T00:17:44.914Z,66.18
2017-11-23T00:20:12.475Z,66.73
2017-11-23T00:22:39.987Z,66.99
2017-11-23T00:25:07.625Z,67.04
2017-11-23T00:27:35.163Z,67.62
2017-11-23T00:30:02.707Z,68.87
2017-11-23T00:32:30.214Z,67.75
2017-11-23T00:34:57.737Z,66.29
2017-11-23T00:37:25.426Z,66.35
2017-11-23T00:39:52.962Z,65.19
2017-11-23T00:42:20.486Z,65.42
2017-11-23T00:44:48.123Z,66.40
2017-11-23T00:47:15.785Z,65.39
2017-11-23T00:49:43.317Z,66.03
2017-11-23T00:52:10.887Z,66.62
2017-11-23T00:54:38.388Z,66.74
2017-11-23T00:57:05.975Z,65.07
2017-11-23T00:59:33.596Z,64.67
2017-11-23T01:02:01.140Z,65.85
2017-11-23T01:04:28.997Z,63.38
2017-11-23T01:06:56.533Z,64.15
2017-11-23T01:09:24.068Z,64.48
2017-11-23T01:11:51.615Z,64.21
2017-11-23T01:14:19.404Z,63.84
2017-11-23T01:16:46.989Z,64.10
2017-11-23T01:19:14.503Z,64.12
2017-11-23T01:21:42.040Z,64.03
2017-11-23T01:24:09.830Z,63.58
2017-11-23T01:26:37.357Z,65.33
2017-11-23T01:29:04.865Z,65.29
2017-11-23T01:31:32.425Z,63.62
2017-11-23T01:33:59.964Z,63.68
2017-11-23T01:36:27.502Z,63.45
2017-11-23T01:38:55.112Z,63.94
2017-11-23T01:41:22.631Z,63.49
2017-11-23T01:43:50.161Z,63.76
2017-11-23T01:46:17.876Z,62.99
2017-11-23T01:48:45.427Z,62.93
2017-11-23T01:51:13.032Z,63.04
2017-11-23T01:53:40.601Z,62.58
2017-11-23T01:56:08.140Z,62.25
2017-11-23T01:58:35.722Z,62.08
2017-11-23T02:01:03.266Z,62.50
2017-11-23T02:03:30.830Z,62.14
2017-11-23T02:05:58.364Z,63.41
2017-11-23T02:08:25.934Z,63.55
2017-11-23T02:10:53.498Z,63.53
2017-11-23T02:13:21.051Z,62.50
2017-11-23T02:15:48.638Z,62.58
2017-11-23T02:18:16.204Z,63.08
2017-11-23T02:20:43.819Z,61.83
2017-11-23T02:23:11.412Z,62.13
2017-11-23T02:25:39.236Z,62.71
2017-11-23T02:28:06.961Z,61.79
2017-11-23T02:30:34.537Z,60.74
2017-11-23T02:33:02.089Z,61.83
2017-11-23T02:35:29.770Z,62.84
2017-11-23T02:37:57.651Z,62.81
2017-11-23T02:40:25.214Z,62.68
2017-11-23T02:42:52.803Z,63.25
2017-11-23T02:45:20.352Z,63.03
2017-11-23T02:47:47.885Z,62.89
2017-11-23T02:50:15.499Z,63.57
2017-11-23T02:52:43.053Z,62.75
2017-11-23T02:55:10.624Z,62.88
2017-11-23T02:57:38.155Z,63.01
2017-11-23T03:00:05.759Z,63.12
2017-11-23T03:02:33.302Z,63.52
2017-11-23T03:05:00.859Z,64.00
2017-11-23T03:07:28.435Z,63.44
2017-11-23T03:09:56.003Z,63.76
2017-11-23T03:12:23.647Z,63.38
2017-11-23T03:14:51.215Z,63.94
2017-11-23T03:17:18.753Z,62.97
2017-11-23T03:19:46.287Z,64.09
2017-11-23T03:22:14.078Z,63.47
2017-11-23T03:24:41.628Z,63.56
2017-11-23T03:29:06.081Z,63.90
2017-11-23T03:31:34.082Z,64.06
2017-11-23T03:34:01.631Z,64.24
2017-11-23T03:36:29.337Z,64.18
2017-11-23T03:38:56.940Z,64.14
2017-11-23T03:41:24.482Z,63.27
2017-11-23T03:43:52.304Z,63.58
2017-11-23T03:46:19.962Z,63.86
2017-11-23T03:48:47.524Z,63.60
2017-11-23T03:51:15.108Z,63.52
2017-11-23T03:53:42.640Z,63.25
2017-11-23T03:56:10.192Z,63.20
2017-11-23T03:58:37.947Z,63.63
2017-11-23T04:01:05.485Z,63.17
2017-11-23T04:03:33.032Z,63.95
2017-11-23T04:06:00.623Z,64.40
2017-11-23T04:08:28.174Z,63.39
2017-11-23T04:10:55.702Z,63.89
2017-11-23T04:13:23.291Z,64.60
2017-11-23T04:15:50.852Z,62.83
2017-11-23T04:18:18.398Z,62.57
2017-11-23T04:20:46.026Z,62.52
2017-11-23T04:23:13.670Z,62.60
2017-11-23T04:25:41.208Z,62.45
2017-11-23T04:28:08.759Z,63.14
2017-11-23T04:30:36.321Z,63.18
2017-11-23T04:33:03.860Z,63.40
2017-11-23T04:35:31.470Z,63.23
2017-11-23T04:37:59.013Z,64.09
2017-11-23T04:40:26.642Z,63.65
2017-11-23T04:44:30.248Z,63.55
2017-11-23T04:46:57.990Z,63.07
2017-11-23T04:49:25.550Z,62.95
2017-11-23T04:51:53.071Z,62.65
2017-11-23T04:54:20.807Z,62.77
2017-11-23T04:56:48.324Z,63.96
2017-11-23T04:59:15.849Z,63.87
2017-11-23T05:01:43.500Z,63.82
2017-11-23T05:04:11.024Z,63.97
2017-11-23T05:06:38.562Z,63.34
2017-11-23T05:09:06.122Z,62.74
2017-11-23T05:11:33.643Z,63.71
2017-11-23T05:14:01.203Z,63.69
2017-11-23T05:16:29.062Z,63.18
2017-11-23T05:18:56.618Z,64.10
2017-11-23T05:21:24.143Z,63.93
2017-11-23T05:23:51.879Z,63.82
2017-11-23T05:26:19.400Z,63.54
2017-11-23T05:28:46.989Z,62.90
2017-11-23T05:31:14.714Z,63.18
2017-11-23T05:33:42.257Z,63.06
2017-11-23T05:36:09.785Z,63.84
2017-11-23T05:38:37.318Z,62.91
2017-11-23T05:41:05.130Z,63.62
2017-11-23T05:43:32.647Z,64.09
2017-11-23T05:46:00.166Z,63.32
2017-11-23T05:48:27.711Z,63.89
2017-11-23T05:50:55.240Z,63.33
2017-11-23T05:53:22.798Z,63.91
2017-11-23T05:55:50.335Z,63.68
2017-11-23T05:58:17.873Z,63.51
2017-11-23T06:00:45.407Z,62.99
2017-11-23T06:03:13.053Z,63.66
2017-11-23T06:05:40.595Z,63.44
2017-11-23T06:08:08.135Z,63.89
2017-11-23T06:10:35.698Z,63.54
2017-11-23T06:13:03.242Z,62.76
2017-11-23T06:15:30.815Z,63.13
2017-11-23T06:17:58.482Z,62.67
2017-11-23T06:20:26.109Z,63.17
2017-11-23T06:22:53.631Z,62.23
2017-11-23T06:25:21.228Z,62.56
2017-11-23T06:27:48.754Z,62.24
2017-11-23T06:30:16.283Z,62.21
2017-11-23T06:32:43.837Z,61.93
2017-11-23T06:35:11.364Z,62.83
2017-11-23T06:37:38.907Z,63.12
2017-11-23T06:40:06.419Z,62.98
2017-11-23T06:42:33.994Z,62.40
2017-11-23T06:45:01.525Z,61.97
2017-11-23T06:47:29.049Z,62.31
2017-11-23T06:49:56.649Z,62.18
2017-11-23T06:52:24.221Z,62.39
2017-11-23T06:54:51.729Z,62.99
2017-11-23T06:57:19.262Z,62.59
2017-11-23T06:59:47.034Z,63.07
2017-11-23T07:02:14.698Z,63.12
2017-11-23T07:04:42.209Z,63.36
2017-11-23T07:07:09.937Z,63.71
2017-11-23T07:09:37.469Z,63.44
2017-11-23T07:12:04.982Z,63.37
2017-11-23T07:14:32.670Z,63.67
2017-11-23T07:17:00.329Z,63.44
2017-11-23T07:19:27.915Z,63.64
2017-11-23T07:21:55.454Z,63.77
2017-11-23T07:26:11.923Z,63.19
2017-11-23T07:28:39.473Z,65.26
2017-11-23T07:31:07.027Z,64.90
2017-11-23T07:33:34.553Z,64.60
2017-11-23T07:36:02.297Z,63.84
2017-11-23T07:38:29.859Z,64.54
2017-11-23T07:40:57.369Z,64.08
2017-11-23T07:43:25.039Z,63.95
2017-11-23T07:45:52.545Z,63.97
2017-11-23T07:48:20.070Z,64.05
2017-11-23T07:50:47.615Z,63.75
2017-11-23T07:53:15.168Z,63.73
2017-11-23T07:55:42.743Z,63.73
2017-11-23T07:58:10.308Z,63.46
2017-11-23T08:00:37.826Z,63.85
2017-11-23T08:03:05.391Z,63.43
2017-11-23T08:05:32.951Z,63.53
2017-11-23T08:08:00.525Z,63.44
2017-11-23T08:10:28.066Z,63.19
2017-11-23T08:12:55.597Z,63.15
2017-11-23T08:15:23.243Z,62.82
2017-11-23T08:17:50.774Z,63.14
2017-11-23T08:20:18.326Z,63.07
2017-11-23T08:22:45.914Z,62.70
2017-11-23T08:25:13.428Z,62.77
2017-11-23T08:27:40.943Z,63.31
2017-11-23T08:30:08.525Z,63.03
2017-11-23T08:32:36.055Z,63.01
2017-11-23T08:35:03.659Z,63.15
2017-11-23T08:37:31.243Z,62.92
2017-11-23T08:39:58.786Z,63.16
2017-11-23T08:42:26.384Z,63.64
2017-11-23T08:44:53.922Z,63.44
2017-11-23T08:47:21.628Z,63.63
2017-11-23T08:49:49.142Z,64.14
2017-11-23T08:52:19.653Z,63.67
2017-11-23T08:54:52.818Z,63.75
2017-11-23T08:57:20.348Z,64.14
2017-11-23T08:59:47.902Z,63.97
2017-11-23T09:02:15.417Z,64.07
2017-11-23T09:04:42.983Z,63.76
2017-11-23T09:07:11.445Z,63.27
2017-11-23T09:09:38.961Z,63.81
2017-11-23T09:15:08.479Z,64.07
2017-11-23T09:17:36.231Z,64.16
2017-11-23T09:20:03.759Z,64.21
2017-11-23T09:22:31.283Z,64.12
2017-11-23T09:24:58.858Z,64.03
2017-11-23T09:27:26.519Z,64.32
2017-11-23T09:29:54.053Z,64.49
2017-11-23T09:32:21.680Z,65.22
2017-11-23T09:34:49.211Z,64.76
2017-11-23T09:37:16.749Z,64.58
2017-11-23T09:39:44.362Z,64.39
2017-11-23T09:42:11.922Z,64.93
2017-11-23T09:44:39.442Z,65.50
2017-11-23T09:47:07.080Z,66.13
2017-11-23T09:49:34.602Z,66.94
2017-11-23T09:52:02.117Z,67.89
2017-11-23T09:54:29.709Z,67.99
2017-11-23T09:56:57.222Z,68.21
2017-11-23T09:59:24.747Z,68.38
2017-11-23T10:01:52.330Z,69.28
2017-11-23T10:04:19.832Z,69.07
2017-11-23T10:06:47.347Z,68.91
2017-11-23T10:09:15.051Z,69.00
2017-11-23T10:11:42.558Z,69.56
2017-11-23T10:14:15.630Z,69.72
2017-11-23T10:16:43.175Z,70.29
2017-11-23T10:19:10.716Z,70.79
2017-11-23T10:21:38.405Z,72.12
2017-11-23T10:24:05.934Z,72.88
2017-11-23T10:26:33.462Z,73.11
2017-11-23T10:29:01.089Z,73.79
2017-11-23T10:31:28.607Z,74.18
2017-11-23T10:33:56.127Z,74.44
2017-11-23T10:36:23.682Z,74.44
2017-11-23T10:38:51.205Z,74.32
2017-11-23T10:41:18.726Z,74.58
2017-11-23T10:43:46.257Z,75.35
2017-11-23T10:46:13.807Z,75.65
2017-11-23T10:48:41.385Z,76.06
2017-11-23T10:51:09.113Z,76.35
2017-11-23T10:53:36.636Z,77.12
2017-11-23T10:56:04.145Z,76.95
2017-11-23T10:58:31.780Z,77.25
2017-11-23T11:00:59.330Z,77.45
2017-11-23T11:03:26.851Z,80.29
2017-11-23T11:05:54.425Z,81.14
2017-11-23T11:08:21.974Z,82.30
2017-11-23T11:10:49.509Z,83.72
2017-11-23T11:13:17.179Z,83.30
2017-11-23T11:15:44.727Z,83.91
2017-11-23T11:18:12.254Z,84.66
2017-11-23T11:20:39.820Z,83.71
2017-11-23T11:23:07.328Z,85.95
2017-11-23T11:25:34.879Z,85.92
2017-11-23T11:28:02.470Z,87.06
2017-11-23T11:30:29.976Z,86.72
2017-11-23T11:32:57.498Z,87.29
2017-11-23T11:35:25.240Z,86.67
2017-11-23T11:37:52.745Z,86.94
2017-11-23T11:40:20.259Z,86.58
2017-11-23T11:42:47.821Z,87.37
2017-11-23T11:45:15.344Z,87.68
2017-11-23T11:47:42.854Z,87.79
2017-11-23T11:50:10.394Z,88.64
2017-11-23T11:52:37.918Z,90.72
2017-11-23T11:55:05.615Z,89.38
2017-11-23T11:57:33.126Z,90.18
2017-11-23T12:00:00.637Z,89.88
2017-11-23T12:02:28.178Z,89.66
2017-11-23T12:04:55.715Z,88.61
2017-11-23T12:07:23.471Z,89.46
2017-11-23T12:09:51.019Z,88.61
2017-11-23T12:12:18.558Z,88.77
2017-11-23T12:14:46.158Z,87.03
2017-11-23T12:20:16.581Z,88.26
2017-11-23T12:23:05.827Z,86.42
2017-11-23T12:25:45.175Z,85.78
2017-11-23T12:28:24.575Z,85.44
2017-11-23T12:30:52.123Z,85.84
2017-11-23T12:33:19.633Z,84.94
2017-11-23T12:35:47.225Z,84.82
2017-11-23T12:38:14.747Z,85.42
2017-11-23T12:40:42.281Z,85.91
2017-11-23T12:43:09.895Z,88.09
2017-11-23T12:45:37.439Z,87.54
2017-11-23T12:48:04.992Z,86.88
2017-11-23T12:50:32.514Z,87.78
2017-11-23T12:53:00.073Z,86.92
2017-11-23T12:55:27.589Z,86.81
2017-11-23T12:57:55.115Z,86.54
2017-11-23T13:00:22.688Z,84.17
2017-11-23T13:02:50.206Z,84.24
2017-11-23T13:05:17.718Z,82.30
2017-11-23T13:07:45.301Z,82.24
2017-11-23T13:10:12.831Z,81.77
2017-11-23T13:12:40.380Z,82.45
2017-11-23T13:15:07.930Z,82.91
2017-11-23T13:17:35.471Z,82.70
2017-11-23T13:20:02.987Z,83.09
2017-11-23T13:22:30.549Z,82.95
2017-11-23T13:24:58.106Z,83.26
2017-11-23T13:27:25.634Z,83.34
2017-11-23T13:29:53.203Z,83.19
2017-11-23T13:32:20.744Z,83.80
2017-11-23T13:34:48.263Z,81.79
2017-11-23T13:37:15.867Z,82.87
2017-11-23T13:39:43.405Z,83.69
2017-11-23T13:42:10.938Z,83.14
2017-11-23T13:44:38.482Z,83.34
2017-11-23T13:47:06.183Z,82.85
2017-11-23T13:49:33.719Z,81.89
2017-11-23T13:52:01.242Z,83.79
2017-11-23T13:54:28.810Z,84.95
2017-11-23T13:56:56.339Z,86.64
2017-11-23T13:59:23.860Z,87.40
2017-11-23T14:01:51.418Z,88.98
2017-11-23T14:04:18.951Z,90.03
2017-11-23T14:06:46.477Z,89.08
2017-11-23T14:09:14.222Z,89.12
2017-11-23T14:11:41.747Z,90.83
2017-11-23T14:14:09.262Z,90.86
2017-11-23T14:16:36.946Z,89.80
2017-11-23T14:19:04.456Z,90.35
2017-11-23T14:21:31.987Z,89.60
2017-11-23T14:23:59.653Z,89.08
2017-11-23T14:26:27.166Z,88.15
2017-11-23T14:28:54.675Z,87.36
2017-11-23T14:31:22.483Z,87.95
2017-11-23T14:33:50.003Z,87.92
2017-11-23T14:36:17.516Z,87.95
2017-11-23T14:38:45.076Z,87.81
2017-11-23T14:41:12.610Z,87.80
2017-11-23T14:43:40.120Z,87.88
2017-11-23T14:46:07.714Z,87.15
2017-11-23T14:48:35.217Z,85.91
2017-11-23T14:51:02.734Z,85.12
2017-11-23T14:53:30.437Z,82.65
2017-11-23T14:55:57.963Z,84.21
2017-11-23T14:58:25.488Z,80.09
2017-11-23T15:00:53.027Z,76.72
2017-11-23T15:03:20.597Z,76.04
2017-11-23T15:05:48.114Z,75.32
2017-11-23T15:08:15.626Z,75.54
2017-11-23T15:10:43.176Z,75.66
2017-11-23T15:13:10.700Z,76.39
2017-11-23T15:15:38.226Z,76.84
2017-11-23T15:18:05.953Z,77.01
2017-11-23T15:20:33.488Z,77.37
2017-11-23T15:23:01.006Z,78.17
2017-11-23T15:25:28.574Z,78.39
2017-11-23T15:27:56.085Z,79.93
2017-11-23T15:30:23.607Z,81.07
2017-11-23T15:32:51.290Z,81.09
2017-11-23T15:35:18.807Z,81.70
2017-11-23T15:37:46.322Z,82.63
2017-11-23T15:40:13.886Z,82.46
2017-11-23T15:42:41.396Z,82.71
2017-11-23T15:45:08.911Z,82.97
2017-11-23T15:47:36.753Z,83.26
2017-11-23T15:50:04.297Z,83.21
2017-11-23T15:52:31.815Z,82.92
2017-11-23T15:54:59.364Z,82.84
2017-11-23T15:57:26.942Z,81.87
2017-11-23T15:59:54.466Z,81.63
2017-11-23T16:02:21.982Z,81.61
2017-11-23T16:04:49.523Z,80.50
2017-11-23T16:07:17.048Z,79.15
2017-11-23T16:09:44.607Z,79.42
2017-11-23T16:12:12.125Z,79.64
2017-11-23T16:14:39.831Z,80.08
2017-11-23T16:17:07.359Z,79.69
2017-11-23T16:19:34.886Z,79.21
2017-11-23T16:22:02.559Z,78.98
2017-11-23T16:24:30.080Z,79.59
2017-11-23T16:26:57.598Z,79.06
2017-11-23T16:29:25.259Z,78.46
2017-11-23T16:31:52.931Z,78.70
2017-11-23T16:34:20.463Z,79.33
2017-11-23T16:39:50.391Z,80.16
2017-11-23T16:45:26.493Z,81.34
2017-11-23T16:48:01.542Z,81.81
2017-11-23T16:50:48.935Z,82.95
2017-11-23T16:53:22.061Z,83.48
2017-11-23T16:55:55.101Z,83.23
2017-11-23T16:58:28.396Z,83.59
2017-11-23T17:03:58.978Z,83.07
2017-11-23T17:09:30.387Z,82.13
2017-11-23T17:12:03.662Z,81.84
2017-11-23T17:14:36.875Z,81.03
2017-11-23T17:20:17.278Z,79.04
2017-11-23T17:22:45.946Z,79.88
2017-11-23T17:25:13.470Z,80.06
2017-11-23T17:27:41.225Z,76.70
2017-11-23T17:30:08.758Z,77.37
2017-11-23T17:32:36.302Z,78.69
2017-11-23T17:35:03.966Z,75.46
2017-11-23T17:37:31.478Z,75.38
2017-11-23T17:39:58.990Z,75.73
2017-11-23T17:42:26.574Z,76.56
2017-11-23T17:44:54.102Z,77.46
2017-11-23T17:47:21.617Z,76.70
2017-11-23T17:49:49.288Z,78.23
2017-11-23T17:52:16.808Z,79.29
2017-11-23T17:54:44.335Z,80.21
2017-11-23T17:57:12.000Z,79.27
2017-11-23T17:59:39.517Z,78.55
2017-11-23T18:02:07.040Z,79.49
2017-11-23T18:04:34.583Z,76.87
2017-11-23T18:07:02.102Z,78.08
2017-11-23T18:09:29.770Z,78.42
2017-11-23T18:11:57.286Z,77.74
2017-11-23T18:14:24.802Z,77.78
2017-11-23T18:16:52.388Z,78.62
2017-11-23T18:19:19.944Z,78.11
2017-11-23T18:21:47.458Z,78.88
2017-11-23T18:24:15.195Z,78.42
2017-11-23T18:26:42.707Z,78.91
2017-11-23T18:29:10.235Z,80.62
2017-11-23T18:31:37.798Z,80.72
2017-11-23T18:34:05.313Z,80.72
2017-11-23T18:36:32.833Z,82.21
2017-11-23T18:39:00.536Z,82.65
2017-11-23T18:41:28.104Z,82.71
2017-11-23T18:43:55.623Z,81.68
2017-11-23T18:46:23.170Z,82.36
2017-11-23T18:48:50.682Z,82.38
2017-11-23T18:51:18.416Z,82.63
2017-11-23T18:53:45.948Z,82.57
2017-11-23T18:56:13.462Z,83.00
2017-11-23T18:58:41.033Z,81.56
2017-11-23T19:01:08.546Z,82.91
2017-11-23T19:03:36.086Z,82.89
2017-11-23T19:06:03.602Z,83.24
2017-11-23T19:08:31.313Z,82.41
2017-11-23T19:10:58.851Z,82.97
2017-11-23T19:13:26.380Z,83.79
2017-11-23T19:15:54.154Z,83.63
2017-11-23T19:18:21.660Z,82.95
2017-11-23T19:20:49.179Z,83.41
2017-11-23T19:23:16.719Z,84.08
2017-11-23T19:25:44.263Z,83.97
2017-11-23T19:28:11.842Z,83.82
2017-11-23T19:30:39.360Z,82.76
2017-11-23T19:33:06.884Z,83.39
2017-11-23T19:35:34.458Z,83.83
2017-11-23T19:38:01.971Z,84.20
2017-11-23T19:40:29.525Z,84.11
2017-11-23T19:42:57.074Z,83.64
2017-11-23T19:45:24.594Z,83.60
2017-11-23T19:47:52.153Z,82.64
2017-11-23T19:50:19.682Z,83.61
2017-11-23T19:52:47.202Z,82.18
2017-11-23T19:55:14.767Z,82.72
2017-11-23T19:57:42.283Z,83.19
2017-11-23T20:00:09.802Z,83.07
2017-11-23T20:02:37.347Z,83.73
2017-11-23T20:05:04.870Z,84.39
2017-11-23T20:07:32.410Z,84.49
2017-11-23T20:09:59.916Z,84.61
2017-11-23T20:12:27.594Z,84.80
2017-11-23T20:14:55.115Z,85.15
2017-11-23T20:17:22.641Z,85.01
2017-11-23T20:19:50.190Z,85.30
2017-11-23T20:22:17.755Z,85.23
2017-11-23T20:24:45.269Z,86.18
2017-11-23T20:27:12.790Z,85.60
2017-11-23T20:29:40.328Z,85.58
2017-11-23T20:32:07.845Z,86.08
2017-11-23T20:34:35.405Z,85.16
2017-11-23T20:37:02.913Z,85.27
2017-11-23T20:39:30.427Z,85.43
2017-11-23T20:41:58.015Z,85.99
2017-11-23T20:44:25.544Z,85.24
2017-11-23T20:46:53.073Z,85.15
2017-11-23T20:49:20.625Z,85.42
2017-11-23T20:51:48.358Z,85.69
2017-11-23T20:54:15.878Z,85.63
2017-11-23T20:56:43.397Z,85.08
2017-11-23T20:59:10.954Z,84.96
2017-11-23T21:01:38.651Z,85.12
2017-11-23T21:04:06.167Z,84.34
2017-11-23T21:06:33.716Z,84.58
2017-11-23T21:09:01.308Z,85.11
2017-11-23T21:11:28.823Z,85.02
2017-11-23T21:13:56.329Z,83.78
2017-11-23T21:16:23.898Z,83.25
2017-11-23T21:18:51.413Z,83.44
2017-11-23T21:21:18.946Z,82.92
2017-11-23T21:23:46.493Z,82.96
2017-11-23T21:26:14.012Z,83.18
2017-11-23T21:28:41.560Z,83.36
2017-11-23T21:31:09.070Z,84.13
2017-11-23T21:33:36.630Z,83.49
2017-11-23T21:36:04.146Z,83.68
2017-11-23T21:38:31.661Z,83.46
2017-11-23T21:40:59.408Z,83.90
2017-11-23T21:43:26.917Z,83.87
2017-11-23T21:45:54.420Z,84.07
2017-11-23T21:48:22.128Z,84.21
2017-11-23T21:50:49.650Z,83.10
2017-11-23T21:53:17.173Z,83.68
2017-11-23T21:55:44.745Z,83.85
2017-11-23T21:58:12.257Z,84.17
2017-11-23T22:00:39.781Z,84.48
2017-11-23T22:03:07.354Z,84.27
2017-11-23T22:05:34.875Z,84.12
2017-11-23T22:08:02.395Z,84.76
2017-11-23T22:10:30.047Z,84.92
2017-11-23T22:12:57.557Z,84.67
2017-11-23T22:15:25.080Z,85.10
2017-11-23T22:17:52.647Z,84.81
2017-11-23T22:20:20.176Z,84.91
2017-11-23T22:22:47.701Z,85.32
2017-11-23T22:25:15.406Z,84.57
2017-11-23T22:27:42.918Z,85.06
2017-11-23T22:30:10.436Z,84.86
2017-11-23T22:32:38.129Z,84.74
2017-11-23T22:35:05.658Z,84.87
2017-11-23T22:37:33.195Z,84.99
2017-11-23T22:40:00.767Z,85.34
2017-11-23T22:42:28.285Z,85.13
2017-11-23T22:44:55.807Z,85.17
2017-11-23T22:47:23.350Z,84.98
2017-11-23T22:49:51.034Z,85.24
2017-11-23T22:52:18.588Z,85.72
2017-11-23T22:54:46.109Z,85.88
2017-11-23T22:57:13.674Z,85.79
2017-11-23T22:59:41.194Z,86.07
2017-11-23T23:02:08.721Z,86.01
2017-11-23T23:04:36.292Z,85.98
2017-11-23T23:07:03.811Z,86.16
2017-11-23T23:09:31.334Z,86.55
2017-11-23T23:11:58.875Z,86.68
2017-11-23T23:14:26.401Z,86.60
2017-11-23T23:16:54.143Z,86.99
2017-11-23T23:19:21.661Z,86.82
2017-11-23T23:21:49.173Z,86.67
2017-11-23T23:24:16.954Z,86.24
2017-11-23T23:26:44.475Z,86.46
2017-11-23T23:29:11.990Z,85.53
2017-11-23T23:31:39.544Z,85.57
2017-11-23T23:34:07.062Z,85.54
2017-11-23T23:36:34.622Z,85.62
2017-11-23T23:39:02.139Z,85.86
2017-11-23T23:41:29.677Z,86.28
2017-11-23T23:43:57.206Z,86.25
2017-11-23T23:46:24.759Z,86.43
2017-11-23T23:48:52.269Z,86.64
2017-11-23T23:51:19.952Z,86.49
2017-11-23T23:53:47.490Z,86.12
2017-11-23T23:56:15.006Z,85.92
2017-11-23T23:58:42.582Z,86.02
